Terminal Aerodrome Forecast
Issued by NWS Tuscon, AZ

Home | Current Version | Previous Version | Text Only | Print | Product List | Glossary On
Versions: 1 2 3 4 5 6 7 8 9 10 11 12 13 14 15 16 17 18 19 20 21 22
000
FTUS45 KTWC 040011 AAA
TAFTUS
TAF AMD
KTUS 040011Z 0400/0424 16012KT P6SM -SHRA BKN060 OVC100
      TEMPO 0400/0402 4SM SHRA BR BKN050
     FM040200 15008KT P6SM VCSH SCT070 OVC110
     FM040700 12007KT P6SM SCT080 BKN130
     FM042000 19008KT P6SM SCT080 BKN150=

USA.gov is the U.S. government's official web portal to all federal, state and local government web resources and services.